createdAt,value
2023-05-08T00:02:21.057Z,5.15
2023-05-08T00:05:07.273Z,5.20
2023-05-08T00:07:53.769Z,5.40
2023-05-08T00:10:39.677Z,4.90
2023-05-08T00:13:25.588Z,5.05
2023-05-08T00:16:12.771Z,4.80
2023-05-08T00:18:59.812Z,5.47
2023-05-08T00:21:45.886Z,4.78
2023-05-08T00:24:38.599Z,5.30
2023-05-08T00:27:24.461Z,5.15
2023-05-08T00:30:11.208Z,5.47
2023-05-08T00:32:57.682Z,4.95
2023-05-08T00:35:43.472Z,5.20
2023-05-08T00:38:36.061Z,4.72
2023-05-08T00:41:21.907Z,4.90
2023-05-08T00:44:08.453Z,5.18
2023-05-08T00:46:54.385Z,5.10
2023-05-08T00:49:40.554Z,4.95
2023-05-08T00:52:28.561Z,4.63
2023-05-08T00:55:14.406Z,4.80
2023-05-08T00:58:00.453Z,5.20
2023-05-08T01:00:47.162Z,4.55
2023-05-08T01:03:36.022Z,4.22
2023-05-08T01:06:22.106Z,4.45
2023-05-08T01:09:08.707Z,4.13
2023-05-08T01:12:18.415Z,4.30
2023-05-08T01:15:36.444Z,4.78
2023-05-08T01:18:59.864Z,4.15
2023-05-08T01:21:57.453Z,4.30
2023-05-08T01:25:32.217Z,4.13
2023-05-08T01:28:48.015Z,4.45
2023-05-08T01:32:10.774Z,4.07
2023-05-08T01:35:42.698Z,4.40
2023-05-08T01:39:11.015Z,4.10
2023-05-08T01:42:16.044Z,4.20
2023-05-08T01:45:05.760Z,4.05
2023-05-08T01:48:06.777Z,4.50
2023-05-08T01:51:01.433Z,4.10
2023-05-08T01:54:05.947Z,4.13
2023-05-08T01:56:55.603Z,4.15
2023-05-08T01:59:42.451Z,4.25
2023-05-08T02:02:31.641Z,3.95
2023-05-08T02:05:18.888Z,4.25
2023-05-08T02:08:08.597Z,4.38
2023-05-08T02:10:56.484Z,4.30
2023-05-08T02:13:44.828Z,4.07
2023-05-08T02:16:31.844Z,3.92
2023-05-08T02:19:19.614Z,4.07
2023-05-08T02:22:06.184Z,4.30
2023-05-08T02:24:55.731Z,4.53
2023-05-08T02:27:47.705Z,4.22
2023-05-08T02:30:34.091Z,4.28
2023-05-08T02:33:20.913Z,4.28
2023-05-08T02:36:08.040Z,4.40
2023-05-08T02:38:54.528Z,3.90
2023-05-08T02:41:42.517Z,3.90
2023-05-08T02:44:28.954Z,4.25
2023-05-08T02:48:15.949Z,4.15
2023-05-08T02:51:25.184Z,4.40
2023-05-08T02:54:16.488Z,3.70
2023-05-08T02:57:15.742Z,4.30
2023-05-08T03:00:08.328Z,4.30
2023-05-08T03:03:01.001Z,4.55
2023-05-08T03:05:53.728Z,4.20
2023-05-08T03:08:45.764Z,5.03
2023-05-08T03:11:39.018Z,5.03
2023-05-08T03:14:30.469Z,4.70
2023-05-08T03:17:17.400Z,4.30
2023-05-08T03:20:06.187Z,4.95
2023-05-08T03:22:53.992Z,4.95
2023-05-08T03:25:50.996Z,4.72
2023-05-08T03:28:37.278Z,5.10
2023-05-08T03:31:24.083Z,5.60
2023-05-08T03:34:12.705Z,5.10
2023-05-08T03:36:59.111Z,4.63
2023-05-08T03:39:45.278Z,4.72
2023-05-08T03:42:31.428Z,4.57
2023-05-08T03:45:18.625Z,4.82
2023-05-08T03:48:05.815Z,4.57
2023-05-08T03:50:53.782Z,5.97
2023-05-08T03:53:39.785Z,6.25
2023-05-08T03:56:26.193Z,5.93
2023-05-08T03:59:42.630Z,5.70
2023-05-08T04:02:42.294Z,4.50
2023-05-08T04:05:37.850Z,4.40
2023-05-08T04:08:33.764Z,4.80
2023-05-08T04:11:44.652Z,4.40
2023-05-08T04:14:36.064Z,5.05
2023-05-08T04:17:59.520Z,4.63
2023-05-08T04:20:51.929Z,4.53
2023-05-08T04:23:40.721Z,4.35
2023-05-08T04:26:27.341Z,4.63
2023-05-08T04:29:14.817Z,4.82
2023-05-08T04:32:01.604Z,5.10
2023-05-08T04:34:47.873Z,5.47
2023-05-08T04:37:33.754Z,5.15
2023-05-08T04:40:21.748Z,5.28
2023-05-08T04:43:08.107Z,4.72
2023-05-08T04:45:54.220Z,5.20
2023-05-08T04:48:40.066Z,6.20
2023-05-08T04:51:26.457Z,5.38
2023-05-08T04:54:12.723Z,5.10
2023-05-08T04:56:59.061Z,5.05
2023-05-08T04:59:45.348Z,4.63
2023-05-08T05:02:31.432Z,5.43
2023-05-08T05:05:17.862Z,4.95
2023-05-08T05:08:04.394Z,4.88
2023-05-08T05:10:50.651Z,5.00
2023-05-08T05:13:36.492Z,5.00
2023-05-08T05:16:23.851Z,5.88
2023-05-08T05:19:10.161Z,5.10
2023-05-08T05:21:56.677Z,4.72
2023-05-08T05:24:42.850Z,5.30
2023-05-08T05:27:28.783Z,5.68
2023-05-08T05:30:15.385Z,5.18
2023-05-08T05:33:01.975Z,5.57
2023-05-08T05:35:48.469Z,4.80
2023-05-08T05:38:34.511Z,5.05
2023-05-08T05:41:20.357Z,5.43
2023-05-08T05:44:06.812Z,5.63
2023-05-08T05:46:52.788Z,4.90
2023-05-08T05:49:39.966Z,5.00
2023-05-08T05:52:26.894Z,4.97
2023-05-08T05:55:13.270Z,4.28
2023-05-08T05:58:03.189Z,4.47
2023-05-08T06:00:49.939Z,4.78
2023-05-08T06:03:35.822Z,4.10
2023-05-08T06:06:23.130Z,4.75
2023-05-08T06:09:09.289Z,4.75
2023-05-08T06:11:55.544Z,4.38
2023-05-08T06:14:41.642Z,4.57
2023-05-08T06:17:29.480Z,4.63
2023-05-08T06:20:16.863Z,4.72
2023-05-08T06:23:02.826Z,5.07
2023-05-08T06:25:49.566Z,4.95
2023-05-08T06:28:35.622Z,5.57
2023-05-08T06:31:21.808Z,5.80
2023-05-08T06:34:08.141Z,5.38
2023-05-08T06:36:54.171Z,5.15
2023-05-08T06:39:39.981Z,5.47
2023-05-08T06:42:26.202Z,6.15
2023-05-08T06:45:12.653Z,5.50
2023-05-08T06:47:58.814Z,6.50
2023-05-08T06:50:44.820Z,6.85
2023-05-08T06:53:31.162Z,7.45
2023-05-08T06:56:16.991Z,6.55
2023-05-08T06:59:08.320Z,6.85
2023-05-08T07:01:54.895Z,6.53
2023-05-08T07:04:40.768Z,5.82
2023-05-08T07:07:26.833Z,5.75
2023-05-08T07:10:12.864Z,6.30
2023-05-08T07:12:58.780Z,6.00
2023-05-08T07:15:44.938Z,6.32
2023-05-08T07:18:30.755Z,6.55
2023-05-08T07:21:18.819Z,6.20
2023-05-08T07:24:05.055Z,5.93
2023-05-08T07:26:51.722Z,5.97
2023-05-08T07:29:37.750Z,5.53
2023-05-08T07:32:24.203Z,6.55
2023-05-08T07:35:12.336Z,6.18
2023-05-08T07:37:58.748Z,6.32
2023-05-08T07:40:44.577Z,5.97
2023-05-08T07:43:30.541Z,5.80
2023-05-08T07:46:17.774Z,5.32
2023-05-08T07:49:04.020Z,7.65
2023-05-08T07:51:49.999Z,5.28
2023-05-08T07:54:36.024Z,5.13
2023-05-08T07:57:22.098Z,5.35
2023-05-08T08:00:10.824Z,5.60
2023-05-08T08:02:59.704Z,5.60
2023-05-08T08:05:45.763Z,6.35
2023-05-08T08:08:31.812Z,7.00
2023-05-08T08:11:17.845Z,6.22
2023-05-08T08:14:04.506Z,6.00
2023-05-08T08:16:50.671Z,16.00
2023-05-08T08:19:36.549Z,6.88
2023-05-08T08:22:23.409Z,9.45
2023-05-08T08:25:12.795Z,5.22
2023-05-08T08:27:59.179Z,6.53
2023-05-08T08:30:45.229Z,5.68
2023-05-08T08:33:30.902Z,6.07
2023-05-08T08:36:16.633Z,5.90
2023-05-08T08:39:02.581Z,4.93
2023-05-08T08:41:48.546Z,5.43
2023-05-08T08:44:34.925Z,4.40
2023-05-08T08:47:23.876Z,5.93
2023-05-08T08:50:12.864Z,5.70
2023-05-08T08:53:24.838Z,6.03
2023-05-08T08:56:12.109Z,5.40
2023-05-08T08:59:01.755Z,4.97
2023-05-08T09:01:49.162Z,4.47
2023-05-08T09:04:35.077Z,4.53
2023-05-08T09:07:21.114Z,5.10
2023-05-08T09:10:07.815Z,5.25
2023-05-08T09:12:54.167Z,5.00
2023-05-08T09:15:41.043Z,5.78
2023-05-08T09:18:27.156Z,5.30
2023-05-08T09:21:13.201Z,6.95
2023-05-08T09:24:00.865Z,5.28
2023-05-08T09:26:47.011Z,5.70
2023-05-08T09:29:32.675Z,5.57
2023-05-08T09:32:19.019Z,5.68
2023-05-08T09:35:06.566Z,4.82
2023-05-08T09:37:52.342Z,5.53
2023-05-08T09:40:38.232Z,10.55
2023-05-08T09:43:24.290Z,6.32
2023-05-08T09:46:19.374Z,5.38
2023-05-08T09:49:05.693Z,18.80
2023-05-08T09:51:53.989Z,14.45
2023-05-08T09:54:39.920Z,20.40
2023-05-08T09:57:27.034Z,6.72
2023-05-08T10:00:14.011Z,5.25
2023-05-08T10:03:01.431Z,6.22
2023-05-08T10:05:47.593Z,6.45
2023-05-08T10:08:33.479Z,7.00
2023-05-08T10:11:21.423Z,6.00
2023-05-08T10:14:08.334Z,4.57
2023-05-08T10:16:54.960Z,5.07
2023-05-08T10:19:46.320Z,5.65
2023-05-08T10:22:33.929Z,5.50
2023-05-08T10:25:23.399Z,4.32
2023-05-08T10:28:15.456Z,5.28
2023-05-08T10:31:03.911Z,4.80
2023-05-08T10:33:51.519Z,13.27
2023-05-08T10:36:37.802Z,7.25
2023-05-08T10:39:24.116Z,7.70
2023-05-08T10:42:11.404Z,11.90
2023-05-08T10:44:57.718Z,11.30
2023-05-08T10:48:11.798Z,15.40
2023-05-08T10:51:16.667Z,8.02
2023-05-08T10:54:08.342Z,6.45
2023-05-08T10:57:08.487Z,5.82
2023-05-08T10:59:54.611Z,5.97
2023-05-08T11:02:40.662Z,5.05
2023-05-08T11:05:28.737Z,5.00
2023-05-08T11:08:18.981Z,4.53
2023-05-08T11:11:10.553Z,11.73
2023-05-08T11:14:09.382Z,4.85
2023-05-08T11:16:55.461Z,4.78
2023-05-08T11:20:00.343Z,6.38
2023-05-08T11:22:49.559Z,5.93
2023-05-08T11:25:43.662Z,5.82
2023-05-08T11:28:34.401Z,5.47
2023-05-08T11:31:21.055Z,6.97
2023-05-08T11:34:43.323Z,5.82
2023-05-08T11:37:32.025Z,6.22
2023-05-08T11:40:50.510Z,6.15
2023-05-08T11:44:18.338Z,4.85
2023-05-08T11:47:04.450Z,5.22
2023-05-08T11:49:50.722Z,7.07
2023-05-08T11:52:38.108Z,12.80
2023-05-08T11:55:24.058Z,5.40
2023-05-08T11:58:13.602Z,6.60
2023-05-08T12:00:59.879Z,6.90
2023-05-08T12:03:46.527Z,5.43
2023-05-08T12:06:34.098Z,8.25
2023-05-08T12:09:20.999Z,9.93
2023-05-08T12:12:07.406Z,9.75
2023-05-08T12:14:53.550Z,9.05
2023-05-08T12:17:40.981Z,7.25
2023-05-08T12:20:27.138Z,6.40
2023-05-08T12:23:13.016Z,7.60
2023-05-08T12:26:00.169Z,7.55
2023-05-08T12:28:47.510Z,6.68
2023-05-08T12:31:36.939Z,7.80
2023-05-08T12:34:22.982Z,7.53
2023-05-08T12:37:09.224Z,7.45
2023-05-08T12:39:56.224Z,6.85
2023-05-08T12:42:51.762Z,8.38
2023-05-08T12:45:42.508Z,10.20
2023-05-08T12:48:28.940Z,8.43
2023-05-08T12:51:15.048Z,7.90
2023-05-08T12:54:01.270Z,6.70
2023-05-08T12:56:50.094Z,6.10
2023-05-08T12:59:35.852Z,6.43
2023-05-08T13:02:24.245Z,6.85
2023-05-08T13:05:10.157Z,6.78
2023-05-08T13:08:05.237Z,5.05
2023-05-08T13:10:55.554Z,4.70
2023-05-08T13:13:41.480Z,6.55
2023-05-08T13:16:27.620Z,7.60
2023-05-08T13:19:16.222Z,6.90
2023-05-08T13:22:02.390Z,6.78
2023-05-08T13:24:48.615Z,6.28
2023-05-08T13:27:37.971Z,7.32
2023-05-08T13:30:23.895Z,6.00
2023-05-08T13:33:10.132Z,12.27
2023-05-08T13:35:56.403Z,5.53
2023-05-08T13:38:42.468Z,6.00
2023-05-08T13:41:28.309Z,6.07
2023-05-08T13:44:14.499Z,8.52
2023-05-08T13:47:00.735Z,6.97
2023-05-08T13:49:47.397Z,11.20
2023-05-08T13:52:35.059Z,8.00
2023-05-08T13:55:22.865Z,7.13
2023-05-08T13:58:09.167Z,5.82
2023-05-08T14:00:55.389Z,5.78
2023-05-08T14:03:41.558Z,6.00
2023-05-08T14:06:27.561Z,5.05
2023-05-08T14:09:14.334Z,7.28
2023-05-08T14:12:00.379Z,9.05
2023-05-08T14:14:46.667Z,6.18
2023-05-08T14:17:33.054Z,5.38
2023-05-08T14:20:19.304Z,5.82
2023-05-08T14:23:05.455Z,5.85
2023-05-08T14:25:51.616Z,6.13
2023-05-08T14:28:37.490Z,5.50
2023-05-08T14:31:23.481Z,8.23
2023-05-08T14:34:18.180Z,6.50
2023-05-08T14:37:05.577Z,7.07
2023-05-08T14:39:54.234Z,7.10
2023-05-08T14:42:40.182Z,6.88
2023-05-08T14:45:26.046Z,7.55
2023-05-08T14:48:12.250Z,7.40
2023-05-08T14:50:58.503Z,7.50
2023-05-08T14:53:44.483Z,7.90
2023-05-08T14:56:40.443Z,7.90
2023-05-08T14:59:33.246Z,8.85
2023-05-08T15:02:20.756Z,10.40
2023-05-08T15:05:10.949Z,9.05
2023-05-08T15:08:05.201Z,9.52
2023-05-08T15:10:52.380Z,9.70
2023-05-08T15:13:38.333Z,10.65
2023-05-08T15:16:24.490Z,8.93
2023-05-08T15:19:10.439Z,10.30
2023-05-08T15:21:56.600Z,9.70
2023-05-08T15:24:42.279Z,10.52
2023-05-08T15:27:29.384Z,8.45
2023-05-08T15:30:15.567Z,7.18
2023-05-08T15:33:02.016Z,7.20
2023-05-08T15:35:48.213Z,9.98
2023-05-08T15:38:34.106Z,13.05
2023-05-08T15:41:19.866Z,34.28
2023-05-08T15:44:06.419Z,53.90
2023-05-08T15:46:52.482Z,40.42
2023-05-08T15:49:38.675Z,26.02
2023-05-08T15:52:24.647Z,19.55
2023-05-08T15:55:11.235Z,6.00
2023-05-08T15:57:57.916Z,12.25
2023-05-08T16:00:45.628Z,10.93
2023-05-08T16:03:32.642Z,5.30
2023-05-08T16:06:18.566Z,30.92
2023-05-08T16:09:04.955Z,17.40
2023-05-08T16:11:50.776Z,15.00
2023-05-08T16:14:36.968Z,9.95
2023-05-08T16:17:23.741Z,4.55
2023-05-08T16:20:12.927Z,2.03
2023-05-08T16:22:59.372Z,2.35
2023-05-08T16:25:45.532Z,2.28
2023-05-08T16:29:09.444Z,2.20
2023-05-08T16:32:02.612Z,1.33
2023-05-08T16:34:52.779Z,1.50
2023-05-08T16:37:39.107Z,1.58
2023-05-08T16:40:25.313Z,1.50
2023-05-08T16:43:11.774Z,1.60
2023-05-08T16:46:08.068Z,1.10
2023-05-08T16:48:54.080Z,1.30
2023-05-08T16:51:39.972Z,2.17
2023-05-08T16:54:26.590Z,1.33
2023-05-08T16:57:15.880Z,1.98
2023-05-08T17:00:01.783Z,1.70
2023-05-08T17:02:48.092Z,1.63
2023-05-08T17:05:34.418Z,2.55
2023-05-08T17:08:20.519Z,2.17
2023-05-08T17:11:06.680Z,2.00
2023-05-08T17:13:52.744Z,15.82
2023-05-08T17:16:38.907Z,14.18
2023-05-08T17:19:25.061Z,14.77
2023-05-08T17:22:11.868Z,8.57
2023-05-08T17:24:58.485Z,5.07
2023-05-08T17:27:44.574Z,2.28
2023-05-08T17:30:31.485Z,2.15
2023-05-08T17:33:18.121Z,1.55
2023-05-08T17:36:04.628Z,1.92
2023-05-08T17:38:52.144Z,1.70
2023-05-08T17:41:38.110Z,3.03
2023-05-08T17:44:24.099Z,11.70
2023-05-08T17:47:10.304Z,10.70
2023-05-08T17:49:56.439Z,18.77
2023-05-08T17:52:42.529Z,9.68
2023-05-08T17:55:30.572Z,7.80
2023-05-08T17:58:16.791Z,2.60
2023-05-08T18:01:03.079Z,1.90
2023-05-08T18:03:49.377Z,1.90
2023-05-08T18:06:35.454Z,2.42
2023-05-08T18:09:21.642Z,2.15
2023-05-08T18:12:08.854Z,2.03
2023-05-08T18:14:54.838Z,1.75
2023-05-08T18:17:41.115Z,2.50
2023-05-08T18:20:27.133Z,2.00
2023-05-08T18:23:12.905Z,2.05
2023-05-08T18:25:59.025Z,2.83
2023-05-08T18:28:45.497Z,2.00
2023-05-08T18:31:33.049Z,1.55
2023-05-08T18:34:19.284Z,1.70
2023-05-08T18:37:05.234Z,1.60
2023-05-08T18:39:51.403Z,2.20
2023-05-08T18:42:37.469Z,2.22
2023-05-08T18:45:23.660Z,28.02
2023-05-08T18:48:10.888Z,12.55
2023-05-08T18:50:58.767Z,16.67
2023-05-08T18:53:44.786Z,5.45
2023-05-08T18:56:30.926Z,3.17
2023-05-08T18:59:17.074Z,2.55
2023-05-08T19:02:07.234Z,2.90
2023-05-08T19:04:53.919Z,2.47
2023-05-08T19:07:41.866Z,4.25
2023-05-08T19:10:27.909Z,23.70
2023-05-08T19:13:14.196Z,10.73
2023-05-08T19:16:01.900Z,13.93
2023-05-08T19:18:47.813Z,4.22
2023-05-08T19:21:35.172Z,4.95
2023-05-08T19:24:26.452Z,4.85
2023-05-08T19:27:12.735Z,4.93
2023-05-08T19:29:58.903Z,4.85
2023-05-08T19:32:45.361Z,5.70
2023-05-08T19:35:31.719Z,5.40
2023-05-08T19:38:18.328Z,5.43
2023-05-08T19:41:04.400Z,5.80
2023-05-08T19:43:50.445Z,5.15
2023-05-08T19:46:37.373Z,5.10
2023-05-08T19:49:24.424Z,4.75
2023-05-08T19:52:10.281Z,5.25
2023-05-08T19:54:57.234Z,5.32
2023-05-08T19:57:43.301Z,4.57
2023-05-08T20:00:29.534Z,5.07
2023-05-08T20:03:15.878Z,4.85
2023-05-08T20:06:01.940Z,4.95
2023-05-08T20:08:48.209Z,5.10
2023-05-08T20:11:34.358Z,5.18
2023-05-08T20:14:20.974Z,5.22
2023-05-08T20:17:07.664Z,4.68
2023-05-08T20:19:54.161Z,5.10
2023-05-08T20:22:40.737Z,4.75
2023-05-08T20:25:27.449Z,5.43
2023-05-08T20:28:19.260Z,5.65
2023-05-08T20:31:05.827Z,5.90
2023-05-08T20:33:52.217Z,6.20
2023-05-08T20:36:38.570Z,5.93
2023-05-08T20:39:24.252Z,5.93
2023-05-08T20:42:10.206Z,7.05
2023-05-08T20:44:56.288Z,6.30
2023-05-08T20:47:42.422Z,6.40
2023-05-08T20:50:28.735Z,5.82
2023-05-08T20:53:14.971Z,6.80
2023-05-08T20:56:02.603Z,5.88
2023-05-08T20:58:49.613Z,6.38
2023-05-08T21:01:35.902Z,6.75
2023-05-08T21:04:22.465Z,6.10
2023-05-08T21:07:08.434Z,5.85
2023-05-08T21:09:54.784Z,6.55
2023-05-08T21:12:44.557Z,6.85
2023-05-08T21:15:30.627Z,6.97
2023-05-08T21:18:17.157Z,8.07
2023-05-08T21:21:03.226Z,6.97
2023-05-08T21:23:49.263Z,7.05
2023-05-08T21:26:36.438Z,7.00
2023-05-08T21:29:22.542Z,7.85
2023-05-08T21:32:10.303Z,7.22
2023-05-08T21:34:56.626Z,6.72
2023-05-08T21:37:43.001Z,7.40
2023-05-08T21:40:29.153Z,7.20
2023-05-08T21:43:14.986Z,7.47
2023-05-08T21:46:01.157Z,6.60
2023-05-08T21:48:48.445Z,6.68
2023-05-08T21:51:36.190Z,7.20
2023-05-08T21:54:24.289Z,7.80
2023-05-08T21:57:10.497Z,6.95
2023-05-08T21:59:56.739Z,7.18
2023-05-08T22:02:43.218Z,6.13
2023-05-08T22:05:30.368Z,6.60
2023-05-08T22:08:16.640Z,7.40
2023-05-08T22:11:02.801Z,7.40
2023-05-08T22:13:48.700Z,6.80
2023-05-08T22:16:35.153Z,6.65
2023-05-08T22:19:21.077Z,7.38
2023-05-08T22:22:07.275Z,6.38
2023-05-08T22:24:53.345Z,6.72
2023-05-08T22:27:39.357Z,6.13
2023-05-08T22:30:25.308Z,6.20
2023-05-08T22:33:11.692Z,6.65
2023-05-08T22:35:58.297Z,7.38
2023-05-08T22:38:44.828Z,6.70
2023-05-08T22:41:30.924Z,6.80
2023-05-08T22:44:17.139Z,6.93
2023-05-08T22:47:03.189Z,6.38
2023-05-08T22:49:49.807Z,7.28
2023-05-08T22:52:36.412Z,7.47
2023-05-08T22:55:22.675Z,7.00
2023-05-08T22:58:09.803Z,7.07
2023-05-08T23:00:56.151Z,5.97
2023-05-08T23:03:42.275Z,7.25
2023-05-08T23:06:28.459Z,6.63
2023-05-08T23:09:14.208Z,6.70
2023-05-08T23:12:00.103Z,6.40
2023-05-08T23:14:45.933Z,6.03
2023-05-08T23:17:31.910Z,6.15
2023-05-08T23:20:18.084Z,5.82
2023-05-08T23:23:04.359Z,6.25
2023-05-08T23:25:51.056Z,5.13
2023-05-08T23:28:37.476Z,6.10
2023-05-08T23:31:23.442Z,6.15
2023-05-08T23:34:09.788Z,5.50
2023-05-08T23:36:55.878Z,5.57
2023-05-08T23:39:41.818Z,6.07
2023-05-08T23:42:28.456Z,5.80
2023-05-08T23:45:14.975Z,5.30
2023-05-08T23:48:01.630Z,5.10
2023-05-08T23:50:48.242Z,5.20
2023-05-08T23:53:33.953Z,5.57
2023-05-08T23:56:20.157Z,5.10
2023-05-08T23:59:06.866Z,5.55
